SCAR METAR and TAF weather

Enter ICAO airport designator
Station Type Date Time Source
SCAR METAR 2020/07/15 05:00 UTC NOAA

SCAR 150500Z 11004KT 8000 OVC015 15/12 Q1015


Station Type Date Time Source
SCAR Decoded METAR 2020/07/15 05:00 UTC NOAA

Arica, Chile (SCAR) 18-20S 070-20W 58M
Jul 15, 2020 - 01:00 AM EDT / 2020.07.15 0500 UTC
Wind: from the ESE (110 degrees) at 5 MPH (4 KT):0
Visibility: 4 mile(s):0
Sky conditions: overcast
Temperature: 59 F (15 C)
Dew Point: 53 F (12 C)
Relative Humidity: 82%
Pressure (altimeter): 29.97 in. Hg (1015 hPa)
ob: SCAR 150500Z 11004KT 8000 OVC015 15/12 Q1015
cycle: 5

Station Type Date Time Source
SCAR TAF 2020/07/15 06:03 UTC NOAA

TAF TAF SCAR 150438Z 1506/1606 08004KT 9999 OVC012 TN14/1506Z TX17/1519Z
BECMG 1514/1516 33007KT SCT017
BECMG 1517/1519 22012KT CAVOK
BECMG 1522/1524 17004KT OVC014

Example: see airport list